sensor_id;sensor_type;location;lat;lon;timestamp;P1;durP1;ratioP1;P2;durP2;ratioP2
70320;SDS011;61127;55.826;37.046;2023-02-25T00:00:43;24.00;;;9.57;;
70320;SDS011;61127;55.826;37.046;2023-02-25T00:03:09;20.83;;;10.02;;
70320;SDS011;61127;55.826;37.046;2023-02-25T00:05:39;23.20;;;9.13;;
70320;SDS011;61127;55.826;37.046;2023-02-25T00:08:05;20.33;;;8.52;;
70320;SDS011;61127;55.826;37.046;2023-02-25T00:10:30;24.30;;;9.30;;
70320;SDS011;61127;55.826;37.046;2023-02-25T00:12:57;21.83;;;9.55;;
70320;SDS011;61127;55.826;37.046;2023-02-25T00:15:24;24.10;;;9.67;;
70320;SDS011;61127;55.826;37.046;2023-02-25T00:17:50;24.55;;;9.50;;
70320;SDS011;61127;55.826;37.046;2023-02-25T00:20:16;23.07;;;10.23;;
70320;SDS011;61127;55.826;37.046;2023-02-25T00:22:45;22.90;;;10.18;;
70320;SDS011;61127;55.826;37.046;2023-02-25T00:25:14;20.40;;;8.85;;
70320;SDS011;61127;55.826;37.046;2023-02-25T00:27:41;24.23;;;10.40;;
70320;SDS011;61127;55.826;37.046;2023-02-25T00:30:07;24.17;;;9.82;;
70320;SDS011;61127;55.826;37.046;2023-02-25T00:32:35;18.77;;;8.65;;
70320;SDS011;61127;55.826;37.046;2023-02-25T00:35:02;24.88;;;9.55;;
70320;SDS011;61127;55.826;37.046;2023-02-25T00:37:29;22.17;;;9.70;;
70320;SDS011;61127;55.826;37.046;2023-02-25T00:39:54;25.55;;;9.90;;
70320;SDS011;61127;55.826;37.046;2023-02-25T00:42:20;23.93;;;9.30;;
70320;SDS011;61127;55.826;37.046;2023-02-25T00:44:47;22.73;;;9.37;;
70320;SDS011;61127;55.826;37.046;2023-02-25T00:47:14;23.10;;;10.32;;
70320;SDS011;61127;55.826;37.046;2023-02-25T00:49:40;23.67;;;9.82;;
70320;SDS011;61127;55.826;37.046;2023-02-25T00:52:05;19.87;;;9.33;;
70320;SDS011;61127;55.826;37.046;2023-02-25T00:54:32;24.02;;;9.35;;
70320;SDS011;61127;55.826;37.046;2023-02-25T00:56:58;23.77;;;9.23;;
70320;SDS011;61127;55.826;37.046;2023-02-25T00:59:24;25.52;;;9.63;;
70320;SDS011;61127;55.826;37.046;2023-02-25T01:01:49;23.90;;;9.70;;
70320;SDS011;61127;55.826;37.046;2023-02-25T01:04:15;22.15;;;8.23;;
70320;SDS011;61127;55.826;37.046;2023-02-25T01:06:42;21.17;;;9.87;;
70320;SDS011;61127;55.826;37.046;2023-02-25T01:09:09;22.05;;;9.63;;
70320;SDS011;61127;55.826;37.046;2023-02-25T01:11:42;23.13;;;9.47;;
70320;SDS011;61127;55.826;37.046;2023-02-25T01:14:10;22.40;;;10.05;;
70320;SDS011;61127;55.826;37.046;2023-02-25T01:16:37;20.73;;;9.07;;
70320;SDS011;61127;55.826;37.046;2023-02-25T01:19:04;22.23;;;9.45;;
70320;SDS011;61127;55.826;37.046;2023-02-25T01:21:32;21.15;;;8.75;;
70320;SDS011;61127;55.826;37.046;2023-02-25T01:24:05;21.97;;;9.03;;
70320;SDS011;61127;55.826;37.046;2023-02-25T01:26:34;22.17;;;9.55;;
70320;SDS011;61127;55.826;37.046;2023-02-25T01:29:00;22.58;;;9.65;;
70320;SDS011;61127;55.826;37.046;2023-02-25T01:31:25;23.60;;;9.23;;
70320;SDS011;61127;55.826;37.046;2023-02-25T01:33:54;22.87;;;10.23;;
70320;SDS011;61127;55.826;37.046;2023-02-25T01:36:23;21.08;;;9.30;;
70320;SDS011;61127;55.826;37.046;2023-02-25T01:38:49;19.90;;;9.35;;
70320;SDS011;61127;55.826;37.046;2023-02-25T01:41:14;20.67;;;8.87;;
70320;SDS011;61127;55.826;37.046;2023-02-25T01:43:40;20.83;;;8.65;;
70320;SDS011;61127;55.826;37.046;2023-02-25T01:46:06;20.67;;;9.53;;
70320;SDS011;61127;55.826;37.046;2023-02-25T01:48:33;23.15;;;9.45;;
70320;SDS011;61127;55.826;37.046;2023-02-25T01:51:01;21.55;;;9.25;;
70320;SDS011;61127;55.826;37.046;2023-02-25T01:53:30;22.02;;;9.40;;
70320;SDS011;61127;55.826;37.046;2023-02-25T01:55:58;22.10;;;9.70;;
70320;SDS011;61127;55.826;37.046;2023-02-25T01:58:25;22.70;;;9.00;;
70320;SDS011;61127;55.826;37.046;2023-02-25T02:00:52;21.55;;;9.38;;
70320;SDS011;61127;55.826;37.046;2023-02-25T02:03:26;21.92;;;9.65;;
70320;SDS011;61127;55.826;37.046;2023-02-25T02:08:18;23.53;;;9.47;;
70320;SDS011;61127;55.826;37.046;2023-02-25T02:10:43;22.20;;;9.10;;
70320;SDS011;61127;55.826;37.046;2023-02-25T02:13:09;22.63;;;9.68;;
70320;SDS011;61127;55.826;37.046;2023-02-25T02:18:44;20.87;;;9.40;;
70320;SDS011;61127;55.826;37.046;2023-02-25T02:47:38;22.65;;;9.55;;
70320;SDS011;61127;55.826;37.046;2023-02-25T02:50:07;21.27;;;8.93;;
70320;SDS011;61127;55.826;37.046;2023-02-25T02:52:34;22.97;;;9.20;;
70320;SDS011;61127;55.826;37.046;2023-02-25T02:55:11;19.27;;;8.55;;
70320;SDS011;61127;55.826;37.046;2023-02-25T02:57:39;19.65;;;8.95;;
70320;SDS011;61127;55.826;37.046;2023-02-25T03:00:10;19.10;;;9.18;;
70320;SDS011;61127;55.826;37.046;2023-02-25T03:02:40;19.73;;;9.00;;
70320;SDS011;61127;55.826;37.046;2023-02-25T03:05:11;19.87;;;8.60;;
70320;SDS011;61127;55.826;37.046;2023-02-25T03:07:42;22.27;;;9.38;;
70320;SDS011;61127;55.826;37.046;2023-02-25T03:10:10;19.13;;;8.43;;
70320;SDS011;61127;55.826;37.046;2023-02-25T03:12:37;18.95;;;9.15;;
70320;SDS011;61127;55.826;37.046;2023-02-25T03:17:51;20.17;;;9.30;;
70320;SDS011;61127;55.826;37.046;2023-02-25T03:20:22;23.52;;;9.45;;
70320;SDS011;61127;55.826;37.046;2023-02-25T03:22:50;21.15;;;9.18;;
70320;SDS011;61127;55.826;37.046;2023-02-25T03:25:20;18.88;;;9.48;;
70320;SDS011;61127;55.826;37.046;2023-02-25T03:27:49;20.13;;;8.80;;
70320;SDS011;61127;55.826;37.046;2023-02-25T03:32:48;20.52;;;10.20;;
70320;SDS011;61127;55.826;37.046;2023-02-25T03:35:18;22.52;;;9.68;;
70320;SDS011;61127;55.826;37.046;2023-02-25T03:37:45;20.80;;;9.52;;
70320;SDS011;61127;55.826;37.046;2023-02-25T03:40:12;21.67;;;9.10;;
70320;SDS011;61127;55.826;37.046;2023-02-25T03:42:44;22.67;;;9.40;;
70320;SDS011;61127;55.826;37.046;2023-02-25T03:45:19;23.77;;;9.73;;
70320;SDS011;61127;55.826;37.046;2023-02-25T03:47:45;21.17;;;9.60;;
70320;SDS011;61127;55.826;37.046;2023-02-25T03:50:17;19.50;;;8.50;;
70320;SDS011;61127;55.826;37.046;2023-02-25T03:52:50;21.73;;;9.07;;
70320;SDS011;61127;55.826;37.046;2023-02-25T03:55:35;22.55;;;9.55;;
70320;SDS011;61127;55.826;37.046;2023-02-25T03:58:01;19.92;;;8.98;;
70320;SDS011;61127;55.826;37.046;2023-02-25T04:00:29;20.93;;;8.87;;
70320;SDS011;61127;55.826;37.046;2023-02-25T04:02:55;21.58;;;9.07;;
70320;SDS011;61127;55.826;37.046;2023-02-25T04:05:23;19.60;;;8.77;;
70320;SDS011;61127;55.826;37.046;2023-02-25T04:07:56;22.20;;;10.05;;
70320;SDS011;61127;55.826;37.046;2023-02-25T04:10:24;19.88;;;8.93;;
70320;SDS011;61127;55.826;37.046;2023-02-25T04:12:49;19.10;;;8.90;;
70320;SDS011;61127;55.826;37.046;2023-02-25T04:15:17;22.25;;;8.82;;
70320;SDS011;61127;55.826;37.046;2023-02-25T04:17:43;19.30;;;8.35;;
70320;SDS011;61127;55.826;37.046;2023-02-25T04:20:12;19.55;;;8.95;;
70320;SDS011;61127;55.826;37.046;2023-02-25T04:22:38;20.92;;;9.10;;
70320;SDS011;61127;55.826;37.046;2023-02-25T04:25:20;20.43;;;9.03;;
70320;SDS011;61127;55.826;37.046;2023-02-25T04:27:46;19.58;;;8.63;;
70320;SDS011;61127;55.826;37.046;2023-02-25T04:30:12;22.10;;;8.90;;
70320;SDS011;61127;55.826;37.046;2023-02-25T04:32:38;19.38;;;8.88;;
70320;SDS011;61127;55.826;37.046;2023-02-25T04:35:05;21.87;;;9.53;;
70320;SDS011;61127;55.826;37.046;2023-02-25T04:37:34;19.42;;;9.00;;
70320;SDS011;61127;55.826;37.046;2023-02-25T04:39:59;19.23;;;8.73;;
70320;SDS011;61127;55.826;37.046;2023-02-25T04:42:25;20.13;;;9.32;;
70320;SDS011;61127;55.826;37.046;2023-02-25T04:44:51;21.60;;;9.60;;
70320;SDS011;61127;55.826;37.046;2023-02-25T04:47:17;21.27;;;8.82;;
70320;SDS011;61127;55.826;37.046;2023-02-25T04:49:43;19.90;;;8.10;;
70320;SDS011;61127;55.826;37.046;2023-02-25T04:52:12;20.07;;;9.03;;
70320;SDS011;61127;55.826;37.046;2023-02-25T04:54:38;17.35;;;8.23;;
70320;SDS011;61127;55.826;37.046;2023-02-25T04:57:04;20.08;;;8.20;;
70320;SDS011;61127;55.826;37.046;2023-02-25T04:59:30;19.07;;;9.17;;
70320;SDS011;61127;55.826;37.046;2023-02-25T05:01:55;21.25;;;9.35;;
70320;SDS011;61127;55.826;37.046;2023-02-25T05:04:21;23.67;;;8.40;;
70320;SDS011;61127;55.826;37.046;2023-02-25T05:06:47;20.33;;;9.10;;
70320;SDS011;61127;55.826;37.046;2023-02-25T05:09:13;21.95;;;9.40;;
70320;SDS011;61127;55.826;37.046;2023-02-25T05:11:38;22.60;;;9.43;;
70320;SDS011;61127;55.826;37.046;2023-02-25T05:14:04;20.40;;;9.23;;
70320;SDS011;61127;55.826;37.046;2023-02-25T05:16:29;21.47;;;8.73;;
70320;SDS011;61127;55.826;37.046;2023-02-25T05:18:55;19.77;;;9.00;;
70320;SDS011;61127;55.826;37.046;2023-02-25T05:21:21;20.17;;;9.10;;
70320;SDS011;61127;55.826;37.046;2023-02-25T05:23:48;20.27;;;10.23;;
70320;SDS011;61127;55.826;37.046;2023-02-25T05:26:15;18.67;;;8.95;;
70320;SDS011;61127;55.826;37.046;2023-02-25T05:28:41;19.73;;;9.23;;
70320;SDS011;61127;55.826;37.046;2023-02-25T05:31:10;20.33;;;8.85;;
70320;SDS011;61127;55.826;37.046;2023-02-25T05:33:37;20.60;;;9.63;;
70320;SDS011;61127;55.826;37.046;2023-02-25T05:36:04;24.90;;;10.32;;
70320;SDS011;61127;55.826;37.046;2023-02-25T05:38:30;22.52;;;10.00;;
70320;SDS011;61127;55.826;37.046;2023-02-25T05:40:57;19.77;;;9.40;;
70320;SDS011;61127;55.826;37.046;2023-02-25T05:43:23;20.75;;;9.48;;
70320;SDS011;61127;55.826;37.046;2023-02-25T05:45:55;24.30;;;10.87;;
70320;SDS011;61127;55.826;37.046;2023-02-25T05:48:21;22.77;;;9.68;;
70320;SDS011;61127;55.826;37.046;2023-02-25T05:50:48;23.45;;;9.80;;
70320;SDS011;61127;55.826;37.046;2023-02-25T05:53:15;23.90;;;10.00;;
70320;SDS011;61127;55.826;37.046;2023-02-25T05:55:42;23.55;;;9.85;;
70320;SDS011;61127;55.826;37.046;2023-02-25T05:58:08;19.63;;;9.82;;
70320;SDS011;61127;55.826;37.046;2023-02-25T06:00:34;21.48;;;9.55;;
70320;SDS011;61127;55.826;37.046;2023-02-25T06:03:00;21.07;;;9.47;;
70320;SDS011;61127;55.826;37.046;2023-02-25T06:05:27;20.45;;;9.57;;
70320;SDS011;61127;55.826;37.046;2023-02-25T06:07:55;20.90;;;9.00;;
70320;SDS011;61127;55.826;37.046;2023-02-25T06:10:21;17.65;;;8.50;;
70320;SDS011;61127;55.826;37.046;2023-02-25T06:12:47;15.97;;;8.17;;
70320;SDS011;61127;55.826;37.046;2023-02-25T06:15:12;19.15;;;8.35;;
70320;SDS011;61127;55.826;37.046;2023-02-25T06:17:39;21.77;;;9.10;;
70320;SDS011;61127;55.826;37.046;2023-02-25T06:20:05;16.48;;;9.02;;
70320;SDS011;61127;55.826;37.046;2023-02-25T06:22:31;16.80;;;8.60;;
70320;SDS011;61127;55.826;37.046;2023-02-25T06:24:57;25.13;;;9.30;;
70320;SDS011;61127;55.826;37.046;2023-02-25T06:27:23;19.95;;;9.38;;
70320;SDS011;61127;55.826;37.046;2023-02-25T06:29:48;22.48;;;9.32;;
70320;SDS011;61127;55.826;37.046;2023-02-25T06:32:14;19.05;;;9.10;;
70320;SDS011;61127;55.826;37.046;2023-02-25T06:34:41;17.63;;;9.13;;
70320;SDS011;61127;55.826;37.046;2023-02-25T06:37:06;22.67;;;9.45;;
70320;SDS011;61127;55.826;37.046;2023-02-25T06:39:32;18.42;;;8.30;;
70320;SDS011;61127;55.826;37.046;2023-02-25T06:41:58;18.65;;;8.82;;
70320;SDS011;61127;55.826;37.046;2023-02-25T06:44:23;17.83;;;8.47;;
70320;SDS011;61127;55.826;37.046;2023-02-25T06:46:51;19.33;;;8.85;;
70320;SDS011;61127;55.826;37.046;2023-02-25T06:49:20;17.80;;;8.80;;
70320;SDS011;61127;55.826;37.046;2023-02-25T06:51:45;18.35;;;8.88;;
70320;SDS011;61127;55.826;37.046;2023-02-25T06:54:13;18.83;;;8.43;;
70320;SDS011;61127;55.826;37.046;2023-02-25T06:56:40;17.80;;;8.15;;
70320;SDS011;61127;55.826;37.046;2023-02-25T06:59:05;18.08;;;8.23;;
70320;SDS011;61127;55.826;37.046;2023-02-25T07:01:31;20.80;;;8.47;;
70320;SDS011;61127;55.826;37.046;2023-02-25T07:03:56;17.43;;;8.07;;
70320;SDS011;61127;55.826;37.046;2023-02-25T07:06:24;14.95;;;7.82;;
70320;SDS011;61127;55.826;37.046;2023-02-25T07:08:50;17.80;;;9.07;;
70320;SDS011;61127;55.826;37.046;2023-02-25T07:13:41;17.03;;;8.50;;
70320;SDS011;61127;55.826;37.046;2023-02-25T07:16:09;17.45;;;9.00;;
70320;SDS011;61127;55.826;37.046;2023-02-25T07:18:34;16.90;;;8.32;;
70320;SDS011;61127;55.826;37.046;2023-02-25T07:21:00;15.65;;;7.93;;
70320;SDS011;61127;55.826;37.046;2023-02-25T07:23:25;19.20;;;8.73;;
70320;SDS011;61127;55.826;37.046;2023-02-25T07:25:52;17.40;;;8.80;;
70320;SDS011;61127;55.826;37.046;2023-02-25T07:28:17;20.00;;;8.88;;
70320;SDS011;61127;55.826;37.046;2023-02-25T07:30:43;18.30;;;8.67;;
70320;SDS011;61127;55.826;37.046;2023-02-25T07:33:08;19.98;;;8.73;;
70320;SDS011;61127;55.826;37.046;2023-02-25T07:35:35;19.47;;;8.60;;
70320;SDS011;61127;55.826;37.046;2023-02-25T07:38:01;15.65;;;7.63;;
70320;SDS011;61127;55.826;37.046;2023-02-25T07:40:26;18.50;;;7.80;;
70320;SDS011;61127;55.826;37.046;2023-02-25T07:42:51;17.37;;;8.33;;
70320;SDS011;61127;55.826;37.046;2023-02-25T07:45:21;17.08;;;8.65;;
70320;SDS011;61127;55.826;37.046;2023-02-25T07:47:47;19.98;;;8.35;;
70320;SDS011;61127;55.826;37.046;2023-02-25T07:50:12;20.17;;;8.73;;
70320;SDS011;61127;55.826;37.046;2023-02-25T07:52:38;14.23;;;8.02;;
70320;SDS011;61127;55.826;37.046;2023-02-25T07:55:05;15.63;;;8.10;;
70320;SDS011;61127;55.826;37.046;2023-02-25T07:57:30;15.18;;;7.78;;
70320;SDS011;61127;55.826;37.046;2023-02-25T07:59:56;16.60;;;7.63;;
70320;SDS011;61127;55.826;37.046;2023-02-25T08:02:23;14.93;;;7.40;;
70320;SDS011;61127;55.826;37.046;2023-02-25T08:04:49;14.50;;;6.60;;
70320;SDS011;61127;55.826;37.046;2023-02-25T08:07:15;17.00;;;8.02;;
70320;SDS011;61127;55.826;37.046;2023-02-25T08:09:41;17.20;;;7.95;;
70320;SDS011;61127;55.826;37.046;2023-02-25T08:12:07;18.52;;;7.80;;
70320;SDS011;61127;55.826;37.046;2023-02-25T08:14:36;18.57;;;7.83;;
70320;SDS011;61127;55.826;37.046;2023-02-25T08:17:01;21.20;;;7.95;;
70320;SDS011;61127;55.826;37.046;2023-02-25T08:19:28;16.05;;;7.55;;
70320;SDS011;61127;55.826;37.046;2023-02-25T08:21:53;17.90;;;7.87;;
70320;SDS011;61127;55.826;37.046;2023-02-25T08:24:20;16.63;;;7.30;;
70320;SDS011;61127;55.826;37.046;2023-02-25T08:26:59;22.02;;;8.32;;
70320;SDS011;61127;55.826;37.046;2023-02-25T08:29:25;21.25;;;8.35;;
70320;SDS011;61127;55.826;37.046;2023-02-25T08:31:50;18.43;;;8.37;;
70320;SDS011;61127;55.826;37.046;2023-02-25T08:34:16;16.25;;;7.82;;
70320;SDS011;61127;55.826;37.046;2023-02-25T08:39:11;13.50;;;7.13;;
70320;SDS011;61127;55.826;37.046;2023-02-25T08:41:36;16.27;;;7.63;;
70320;SDS011;61127;55.826;37.046;2023-02-25T08:44:02;17.65;;;7.50;;
70320;SDS011;61127;55.826;37.046;2023-02-25T08:49:03;15.10;;;7.88;;
70320;SDS011;61127;55.826;37.046;2023-02-25T08:51:29;14.82;;;7.63;;
70320;SDS011;61127;55.826;37.046;2023-02-25T08:54:09;16.40;;;7.85;;
70320;SDS011;61127;55.826;37.046;2023-02-25T08:56:37;18.88;;;8.55;;
70320;SDS011;61127;55.826;37.046;2023-02-25T08:59:09;14.00;;;7.70;;
70320;SDS011;61127;55.826;37.046;2023-02-25T09:01:35;14.90;;;7.15;;
70320;SDS011;61127;55.826;37.046;2023-02-25T09:04:14;13.18;;;7.15;;
70320;SDS011;61127;55.826;37.046;2023-02-25T09:06:42;15.98;;;6.80;;
70320;SDS011;61127;55.826;37.046;2023-02-25T09:09:07;11.77;;;6.88;;
70320;SDS011;61127;55.826;37.046;2023-02-25T09:11:33;14.98;;;7.03;;
70320;SDS011;61127;55.826;37.046;2023-02-25T09:13:59;14.02;;;6.65;;
70320;SDS011;61127;55.826;37.046;2023-02-25T09:16:36;12.07;;;6.70;;
70320;SDS011;61127;55.826;37.046;2023-02-25T09:19:02;15.75;;;6.80;;
70320;SDS011;61127;55.826;37.046;2023-02-25T09:21:27;14.70;;;7.03;;
70320;SDS011;61127;55.826;37.046;2023-02-25T09:23:53;13.00;;;6.43;;
70320;SDS011;61127;55.826;37.046;2023-02-25T09:26:20;17.13;;;7.40;;
70320;SDS011;61127;55.826;37.046;2023-02-25T09:28:46;12.73;;;6.55;;
70320;SDS011;61127;55.826;37.046;2023-02-25T09:31:15;14.82;;;6.80;;
70320;SDS011;61127;55.826;37.046;2023-02-25T09:33:41;11.40;;;6.20;;
70320;SDS011;61127;55.826;37.046;2023-02-25T09:36:15;13.13;;;6.80;;
70320;SDS011;61127;55.826;37.046;2023-02-25T09:38:41;15.60;;;7.15;;
70320;SDS011;61127;55.826;37.046;2023-02-25T09:41:24;14.77;;;6.80;;
70320;SDS011;61127;55.826;37.046;2023-02-25T09:46:40;14.20;;;6.25;;
70320;SDS011;61127;55.826;37.046;2023-02-25T09:49:14;13.98;;;6.60;;
70320;SDS011;61127;55.826;37.046;2023-02-25T09:51:43;12.18;;;6.60;;
70320;SDS011;61127;55.826;37.046;2023-02-25T09:54:26;12.38;;;6.63;;
70320;SDS011;61127;55.826;37.046;2023-02-25T09:56:54;12.20;;;6.45;;
70320;SDS011;61127;55.826;37.046;2023-02-25T09:59:25;12.98;;;6.53;;
70320;SDS011;61127;55.826;37.046;2023-02-25T10:01:54;11.68;;;6.50;;
70320;SDS011;61127;55.826;37.046;2023-02-25T10:06:50;11.50;;;5.97;;
70320;SDS011;61127;55.826;37.046;2023-02-25T10:09:23;13.60;;;6.55;;
70320;SDS011;61127;55.826;37.046;2023-02-25T10:14:23;11.18;;;6.80;;
70320;SDS011;61127;55.826;37.046;2023-02-25T10:17:05;13.63;;;6.68;;
70320;SDS011;61127;55.826;37.046;2023-02-25T10:24:32;14.07;;;6.05;;
70320;SDS011;61127;55.826;37.046;2023-02-25T10:27:42;11.57;;;5.72;;
70320;SDS011;61127;55.826;37.046;2023-02-25T10:29:52;11.38;;;5.80;;
70320;SDS011;61127;55.826;37.046;2023-02-25T10:32:25;9.18;;;5.22;;
70320;SDS011;61127;55.826;37.046;2023-02-25T10:34:53;9.93;;;5.30;;
70320;SDS011;61127;55.826;37.046;2023-02-25T10:37:35;9.60;;;5.07;;
70320;SDS011;61127;55.826;37.046;2023-02-25T10:40:03;7.93;;;4.53;;
70320;SDS011;61127;55.826;37.046;2023-02-25T10:42:29;9.15;;;5.00;;
70320;SDS011;61127;55.826;37.046;2023-02-25T10:44:59;9.97;;;4.97;;
70320;SDS011;61127;55.826;37.046;2023-02-25T10:47:44;6.88;;;4.30;;
70320;SDS011;61127;55.826;37.046;2023-02-25T10:55:26;8.63;;;4.75;;
70320;SDS011;61127;55.826;37.046;2023-02-25T10:57:52;8.07;;;4.43;;
70320;SDS011;61127;55.826;37.046;2023-02-25T11:00:26;8.73;;;4.65;;
70320;SDS011;61127;55.826;37.046;2023-02-25T11:02:53;7.82;;;4.55;;
70320;SDS011;61127;55.826;37.046;2023-02-25T11:07:54;8.07;;;4.50;;
70320;SDS011;61127;55.826;37.046;2023-02-25T11:10:21;12.85;;;5.35;;
70320;SDS011;61127;55.826;37.046;2023-02-25T11:12:52;8.65;;;4.68;;
70320;SDS011;61127;55.826;37.046;2023-02-25T11:17:47;7.85;;;4.93;;
70320;SDS011;61127;55.826;37.046;2023-02-25T11:20:23;7.97;;;4.57;;
70320;SDS011;61127;55.826;37.046;2023-02-25T11:22:53;9.88;;;4.65;;
70320;SDS011;61127;55.826;37.046;2023-02-25T11:25:23;9.65;;;4.85;;
70320;SDS011;61127;55.826;37.046;2023-02-25T11:27:56;8.18;;;4.65;;
70320;SDS011;61127;55.826;37.046;2023-02-25T11:30:24;7.32;;;4.70;;
70320;SDS011;61127;55.826;37.046;2023-02-25T11:32:54;10.30;;;4.70;;
70320;SDS011;61127;55.826;37.046;2023-02-25T11:37:49;9.55;;;4.40;;
70320;SDS011;61127;55.826;37.046;2023-02-25T11:40:31;9.63;;;4.88;;
70320;SDS011;61127;55.826;37.046;2023-02-25T11:43:01;7.35;;;4.68;;
70320;SDS011;61127;55.826;37.046;2023-02-25T11:45:34;12.23;;;5.10;;
70320;SDS011;61127;55.826;37.046;2023-02-25T11:48:02;10.27;;;5.03;;
70320;SDS011;61127;55.826;37.046;2023-02-25T11:50:33;9.30;;;5.20;;
70320;SDS011;61127;55.826;37.046;2023-02-25T11:53:08;9.10;;;5.30;;
70320;SDS011;61127;55.826;37.046;2023-02-25T11:58:33;8.70;;;4.43;;
70320;SDS011;61127;55.826;37.046;2023-02-25T12:01:03;9.10;;;4.72;;
70320;SDS011;61127;55.826;37.046;2023-02-25T12:06:19;9.05;;;4.57;;
70320;SDS011;61127;55.826;37.046;2023-02-25T12:23:54;9.32;;;5.30;;
70320;SDS011;61127;55.826;37.046;2023-02-25T12:37:03;11.93;;;5.50;;
70320;SDS011;61127;55.826;37.046;2023-02-25T12:47:43;8.13;;;4.63;;
70320;SDS011;61127;55.826;37.046;2023-02-25T13:03:02;11.65;;;5.78;;
70320;SDS011;61127;55.826;37.046;2023-02-25T13:08:32;10.90;;;5.20;;
70320;SDS011;61127;55.826;37.046;2023-02-25T13:24:08;8.98;;;4.43;;
70320;SDS011;61127;55.826;37.046;2023-02-25T13:29:25;7.53;;;4.70;;
70320;SDS011;61127;55.826;37.046;2023-02-25T13:50:36;8.45;;;4.47;;
70320;SDS011;61127;55.826;37.046;2023-02-25T13:55:44;8.13;;;4.70;;
70320;SDS011;61127;55.826;37.046;2023-02-25T13:58:31;7.90;;;4.85;;
70320;SDS011;61127;55.826;37.046;2023-02-25T14:01:11;7.57;;;4.20;;
70320;SDS011;61127;55.826;37.046;2023-02-25T14:03:46;7.95;;;4.50;;
70320;SDS011;61127;55.826;37.046;2023-02-25T14:13:51;9.40;;;4.95;;
70320;SDS011;61127;55.826;37.046;2023-02-25T14:21:52;9.88;;;4.85;;
70320;SDS011;61127;55.826;37.046;2023-02-25T14:24:41;11.02;;;4.45;;
70320;SDS011;61127;55.826;37.046;2023-02-25T14:27:19;9.57;;;4.85;;
70320;SDS011;61127;55.826;37.046;2023-02-25T14:30:05;9.15;;;4.72;;
70320;SDS011;61127;55.826;37.046;2023-02-25T14:32:40;9.88;;;4.90;;
70320;SDS011;61127;55.826;37.046;2023-02-25T14:35:14;9.82;;;4.95;;
70320;SDS011;61127;55.826;37.046;2023-02-25T14:45:23;9.20;;;4.93;;
70320;SDS011;61127;55.826;37.046;2023-02-25T14:47:57;10.35;;;5.57;;
70320;SDS011;61127;55.826;37.046;2023-02-25T14:58:23;10.25;;;5.10;;
70320;SDS011;61127;55.826;37.046;2023-02-25T15:08:28;11.52;;;5.82;;
70320;SDS011;61127;55.826;37.046;2023-02-25T15:21:21;12.02;;;5.35;;
70320;SDS011;61127;55.826;37.046;2023-02-25T15:23:49;12.68;;;5.05;;
70320;SDS011;61127;55.826;37.046;2023-02-25T15:26:24;13.88;;;6.22;;
70320;SDS011;61127;55.826;37.046;2023-02-25T15:28:50;12.90;;;6.53;;
70320;SDS011;61127;55.826;37.046;2023-02-25T15:31:23;14.10;;;6.45;;
70320;SDS011;61127;55.826;37.046;2023-02-25T15:33:53;14.70;;;6.22;;
70320;SDS011;61127;55.826;37.046;2023-02-25T15:36:22;14.45;;;6.50;;
70320;SDS011;61127;55.826;37.046;2023-02-25T15:38:50;15.35;;;6.80;;
70320;SDS011;61127;55.826;37.046;2023-02-25T15:43:48;14.80;;;7.05;;
70320;SDS011;61127;55.826;37.046;2023-02-25T15:49:00;13.32;;;7.65;;
70320;SDS011;61127;55.826;37.046;2023-02-25T15:51:41;12.13;;;6.22;;
70320;SDS011;61127;55.826;37.046;2023-02-25T15:54:07;12.85;;;7.03;;
70320;SDS011;61127;55.826;37.046;2023-02-25T15:56:46;15.40;;;7.07;;
70320;SDS011;61127;55.826;37.046;2023-02-25T15:59:37;15.38;;;7.25;;
70320;SDS011;61127;55.826;37.046;2023-02-25T16:01:58;14.25;;;6.97;;
70320;SDS011;61127;55.826;37.046;2023-02-25T16:04:40;15.02;;;6.28;;
70320;SDS011;61127;55.826;37.046;2023-02-25T16:07:07;13.82;;;7.07;;
70320;SDS011;61127;55.826;37.046;2023-02-25T16:09:38;13.93;;;6.83;;
70320;SDS011;61127;55.826;37.046;2023-02-25T16:12:04;14.25;;;7.05;;
70320;SDS011;61127;55.826;37.046;2023-02-25T16:14:32;14.30;;;6.57;;
70320;SDS011;61127;55.826;37.046;2023-02-25T16:17:09;14.07;;;7.20;;
70320;SDS011;61127;55.826;37.046;2023-02-25T16:19:38;17.92;;;9.25;;
70320;SDS011;61127;55.826;37.046;2023-02-25T16:24:35;13.77;;;7.63;;
70320;SDS011;61127;55.826;37.046;2023-02-25T16:32:25;16.27;;;7.32;;
70320;SDS011;61127;55.826;37.046;2023-02-25T16:35:06;17.87;;;8.07;;
70320;SDS011;61127;55.826;37.046;2023-02-25T16:37:49;14.65;;;7.85;;
70320;SDS011;61127;55.826;37.046;2023-02-25T16:40:58;16.80;;;8.18;;
70320;SDS011;61127;55.826;37.046;2023-02-25T16:43:08;15.80;;;7.70;;
70320;SDS011;61127;55.826;37.046;2023-02-25T16:45:43;15.18;;;8.20;;
70320;SDS011;61127;55.826;37.046;2023-02-25T16:48:17;14.77;;;7.63;;
70320;SDS011;61127;55.826;37.046;2023-02-25T16:50:46;19.13;;;8.73;;
70320;SDS011;61127;55.826;37.046;2023-02-25T16:53:17;16.13;;;8.02;;
70320;SDS011;61127;55.826;37.046;2023-02-25T16:55:44;15.60;;;8.38;;
70320;SDS011;61127;55.826;37.046;2023-02-25T17:00:36;18.63;;;9.30;;
70320;SDS011;61127;55.826;37.046;2023-02-25T17:03:12;18.20;;;9.48;;
70320;SDS011;61127;55.826;37.046;2023-02-25T17:05:41;20.30;;;9.40;;
70320;SDS011;61127;55.826;37.046;2023-02-25T17:08:12;20.77;;;9.68;;
70320;SDS011;61127;55.826;37.046;2023-02-25T17:13:08;19.85;;;9.38;;
70320;SDS011;61127;55.826;37.046;2023-02-25T17:15:38;18.83;;;8.98;;
70320;SDS011;61127;55.826;37.046;2023-02-25T17:20:33;14.98;;;6.78;;
70320;SDS011;61127;55.826;37.046;2023-02-25T17:23:02;20.48;;;9.55;;
70320;SDS011;61127;55.826;37.046;2023-02-25T17:25:32;17.75;;;7.60;;
70320;SDS011;61127;55.826;37.046;2023-02-25T17:28:01;19.90;;;10.02;;
70320;SDS011;61127;55.826;37.046;2023-02-25T17:32:59;23.55;;;10.57;;
70320;SDS011;61127;55.826;37.046;2023-02-25T17:35:28;21.70;;;11.57;;
70320;SDS011;61127;55.826;37.046;2023-02-25T17:37:54;24.42;;;11.05;;
70320;SDS011;61127;55.826;37.046;2023-02-25T17:40:22;22.80;;;11.18;;
70320;SDS011;61127;55.826;37.046;2023-02-25T17:42:48;24.80;;;10.83;;
70320;SDS011;61127;55.826;37.046;2023-02-25T17:45:58;22.42;;;11.10;;
70320;SDS011;61127;55.826;37.046;2023-02-25T17:48:10;25.08;;;11.20;;
70320;SDS011;61127;55.826;37.046;2023-02-25T17:50:37;26.73;;;11.00;;
70320;SDS011;61127;55.826;37.046;2023-02-25T17:53:03;20.55;;;9.57;;
70320;SDS011;61127;55.826;37.046;2023-02-25T17:55:34;20.33;;;10.67;;
70320;SDS011;61127;55.826;37.046;2023-02-25T17:58:00;23.92;;;10.48;;
70320;SDS011;61127;55.826;37.046;2023-02-25T18:00:30;22.23;;;9.98;;
70320;SDS011;61127;55.826;37.046;2023-02-25T18:03:18;22.20;;;10.50;;
70320;SDS011;61127;55.826;37.046;2023-02-25T18:05:52;20.38;;;10.00;;
70320;SDS011;61127;55.826;37.046;2023-02-25T18:10:44;21.25;;;10.50;;
70320;SDS011;61127;55.826;37.046;2023-02-25T18:13:21;20.80;;;9.43;;
70320;SDS011;61127;55.826;37.046;2023-02-25T18:16:08;24.10;;;10.70;;
70320;SDS011;61127;55.826;37.046;2023-02-25T18:18:34;24.70;;;10.65;;
70320;SDS011;61127;55.826;37.046;2023-02-25T18:21:00;24.63;;;10.23;;
70320;SDS011;61127;55.826;37.046;2023-02-25T18:23:26;26.15;;;11.30;;
70320;SDS011;61127;55.826;37.046;2023-02-25T18:26:28;25.02;;;10.98;;